createdAt,value
2023-03-10T00:00:05.841Z,97176.23
2023-03-10T00:05:08.334Z,97168.23
2023-03-10T00:10:18.298Z,97164.17
2023-03-10T00:15:23.529Z,97152.08
2023-03-10T00:20:25.511Z,97146.88
2023-03-10T00:25:27.444Z,97152.61
2023-03-10T00:30:30.686Z,97151.02
2023-03-10T00:35:35.804Z,97152.14
2023-03-10T00:40:38.534Z,97157.39
2023-03-10T00:45:40.880Z,97153.27
2023-03-10T00:50:45.670Z,97141.30
2023-03-10T00:56:08.081Z,97139.92
2023-03-10T01:01:16.016Z,97131.13
2023-03-10T01:06:18.237Z,97135.80
2023-03-10T01:11:23.750Z,97127.02
2023-03-10T01:16:26.750Z,97113.95
2023-03-10T01:21:32.610Z,97123.88
2023-03-10T01:26:34.782Z,97123.58
2023-03-10T01:31:36.623Z,97116.54
2023-03-10T01:36:41.358Z,97113.23
2023-03-10T01:41:43.135Z,97109.89
2023-03-10T01:46:55.932Z,97103.29
2023-03-10T01:52:08.670Z,97099.41
2023-03-10T01:57:13.522Z,97099.60
2023-03-10T02:02:15.680Z,97094.48
2023-03-10T02:07:21.550Z,97090.70
2023-03-10T02:12:23.631Z,97089.70
2023-03-10T02:17:27.507Z,97078.53
2023-03-10T02:22:29.704Z,97067.36
2023-03-10T02:27:36.691Z,97059.42
2023-03-10T02:32:43.167Z,97060.66
2023-03-10T02:38:08.864Z,97049.66
2023-03-10T02:43:34.648Z,97050.67
2023-03-10T02:48:50.911Z,97044.45
2023-03-10T02:54:00.361Z,97047.86
2023-03-10T02:59:04.195Z,97043.71
2023-03-10T03:04:07.195Z,97034.17
2023-03-10T03:09:09.043Z,97031.12
2023-03-10T03:14:10.856Z,97030.28
2023-03-10T03:19:14.458Z,97008.42
2023-03-10T03:24:18.653Z,97001.59
2023-03-10T03:29:20.471Z,97000.51
2023-03-10T03:34:32.497Z,96993.79
2023-03-10T03:39:36.607Z,96989.09
2023-03-10T03:44:40.999Z,96985.77
2023-03-10T03:49:43.063Z,96981.84
2023-03-10T03:54:46.141Z,96985.87
2023-03-10T03:59:48.281Z,96980.55
2023-03-10T04:04:50.496Z,96972.98
2023-03-10T04:09:53.042Z,96963.02
2023-03-10T04:14:54.828Z,96959.36
2023-03-10T04:20:06.680Z,96953.17
2023-03-10T04:25:09.942Z,96952.98
2023-03-10T04:30:13.941Z,96948.30
2023-03-10T04:35:17.838Z,96937.83
2023-03-10T04:40:20.121Z,96927.98
2023-03-10T04:45:23.018Z,96927.52
2023-03-10T04:50:27.384Z,96920.09
2023-03-10T04:55:29.739Z,96917.09
2023-03-10T05:00:32.613Z,96909.86
2023-03-10T05:05:37.541Z,96897.70
2023-03-10T05:10:41.181Z,96883.00
2023-03-10T05:15:43.176Z,96865.86
2023-03-10T05:20:45.280Z,96882.21
2023-03-10T05:25:48.650Z,96877.63
2023-03-10T05:30:50.730Z,96862.41
2023-03-10T05:35:53.000Z,96852.95
2023-03-10T05:40:54.948Z,96851.08
2023-03-10T05:45:58.457Z,96840.23
2023-03-10T05:51:03.848Z,96835.45
2023-03-10T05:56:12.022Z,96831.18
2023-03-10T06:01:14.539Z,96825.99
2023-03-10T06:06:16.313Z,96814.16
2023-03-10T06:11:20.849Z,96807.85
2023-03-10T06:16:22.547Z,96802.14
2023-03-10T06:21:25.156Z,96803.70
2023-03-10T06:26:26.939Z,96788.02
2023-03-10T06:31:29.768Z,96780.84
2023-03-10T06:36:34.442Z,96770.85
2023-03-10T06:41:37.162Z,96766.29
2023-03-10T06:46:38.867Z,96757.85
2023-03-10T06:51:40.674Z,96741.88
2023-03-10T06:56:42.362Z,96732.66
2023-03-10T07:01:44.810Z,96738.33
2023-03-10T07:06:46.533Z,96742.61
2023-03-10T07:11:48.203Z,96741.20
2023-03-10T07:16:49.899Z,96744.89
2023-03-10T07:21:51.630Z,96742.32
2023-03-10T07:26:53.297Z,96720.56
2023-03-10T07:31:55.140Z,96732.17
2023-03-10T07:36:56.844Z,96717.52
2023-03-10T07:42:00.115Z,96719.17
2023-03-10T07:47:01.963Z,96720.66
2023-03-10T07:52:04.126Z,96728.61
2023-03-10T07:57:06.032Z,96735.46
2023-03-10T08:02:11.057Z,96737.25
2023-03-10T08:07:12.804Z,96736.66
2023-03-10T08:12:14.508Z,96733.70
2023-03-10T08:17:16.212Z,96723.84
2023-03-10T08:22:18.000Z,96723.88
2023-03-10T08:27:19.763Z,96723.36
2023-03-10T08:32:21.508Z,96719.21
2023-03-10T08:37:23.256Z,96711.31
2023-03-10T08:42:25.383Z,96711.08
2023-03-10T08:47:29.846Z,96705.67
2023-03-10T08:52:32.838Z,96709.64
2023-03-10T08:57:36.028Z,96704.09
2023-03-10T09:02:39.374Z,96700.98
2023-03-10T09:07:43.592Z,96672.48
2023-03-10T09:12:45.857Z,96702.11
2023-03-10T09:17:48.124Z,96691.72
2023-03-10T09:22:49.988Z,96683.41
2023-03-10T09:27:51.889Z,96678.85
2023-03-10T09:32:55.852Z,96681.21
2023-03-10T09:37:57.842Z,96681.45
2023-03-10T09:43:02.989Z,96687.02
2023-03-10T09:48:25.352Z,96688.43
2023-03-10T09:53:28.011Z,96681.35
2023-03-10T09:58:40.972Z,96677.78
2023-03-10T10:03:53.837Z,96682.27
2023-03-10T10:09:06.083Z,96679.15
2023-03-10T10:14:38.426Z,96671.13
2023-03-10T10:19:44.232Z,96674.52
2023-03-10T10:25:02.810Z,96683.02
2023-03-10T10:30:34.953Z,96675.23
2023-03-10T10:35:40.357Z,96666.77
2023-03-10T10:41:10.028Z,96665.52
2023-03-10T10:46:14.522Z,96657.36
2023-03-10T10:51:28.832Z,96653.01
2023-03-10T10:56:30.688Z,96649.11
2023-03-10T11:01:47.865Z,96644.47
2023-03-10T11:06:50.804Z,96625.70
2023-03-10T11:12:14.687Z,96628.14
2023-03-10T11:17:33.216Z,96609.40
2023-03-10T11:22:44.835Z,96605.41
2023-03-10T11:27:49.543Z,96597.36
2023-03-10T11:32:57.691Z,96588.92
2023-03-10T11:38:18.019Z,96590.77
2023-03-10T11:43:35.094Z,96588.39
2023-03-10T11:48:48.818Z,96582.66
2023-03-10T11:53:52.504Z,96574.50
2023-03-10T11:59:20.304Z,96570.14
2023-03-10T12:04:47.307Z,96576.80
2023-03-10T12:09:55.012Z,96573.60
2023-03-10T12:15:00.213Z,96568.20
2023-03-10T12:20:12.984Z,96567.09
2023-03-10T12:25:30.218Z,96569.89
2023-03-10T12:31:01.793Z,96571.90
2023-03-10T12:36:34.245Z,96564.31
2023-03-10T12:41:43.797Z,96557.99
2023-03-10T12:47:20.437Z,96557.85
2023-03-10T12:52:40.905Z,96550.41
2023-03-10T12:58:13.645Z,96550.32
2023-03-10T13:03:26.302Z,96549.54
2023-03-10T13:08:50.907Z,96552.58
2023-03-10T13:14:01.400Z,96555.21
2023-03-10T13:19:03.898Z,96550.27
2023-03-10T13:24:36.004Z,96547.24
2023-03-10T13:29:37.810Z,96541.14
2023-03-10T13:34:39.484Z,96540.41
2023-03-10T13:39:41.823Z,96541.02
2023-03-10T13:44:44.570Z,96548.75
2023-03-10T13:49:59.704Z,96537.23
2023-03-10T13:55:16.815Z,96529.56
2023-03-10T14:00:22.648Z,96524.08
2023-03-10T14:05:38.105Z,96518.40
2023-03-10T14:10:39.814Z,96509.07
2023-03-10T14:15:54.030Z,96506.83
2023-03-10T14:20:56.777Z,96497.02
2023-03-10T14:25:58.735Z,96496.04
2023-03-10T14:31:02.701Z,96494.38
2023-03-10T14:36:10.811Z,96489.37
2023-03-10T14:41:13.775Z,96482.03
2023-03-10T14:46:16.007Z,96484.08
2023-03-10T14:51:32.517Z,96476.71
2023-03-10T14:56:36.077Z,96474.35
2023-03-10T15:01:37.866Z,96469.13
2023-03-10T15:06:39.561Z,96466.52
2023-03-10T15:11:41.886Z,96463.29
2023-03-10T15:16:43.842Z,96456.29
2023-03-10T15:21:45.792Z,96459.71
2023-03-10T15:26:48.410Z,96452.20
2023-03-10T15:31:51.098Z,96446.62
2023-03-10T15:36:52.800Z,96441.84
2023-03-10T15:41:54.476Z,96436.97
2023-03-10T15:46:56.476Z,96438.12
2023-03-10T15:51:58.558Z,96437.10
2023-03-10T15:57:00.472Z,96428.21
2023-03-10T16:02:02.398Z,96428.27
2023-03-10T16:07:05.802Z,96427.32
2023-03-10T16:12:07.831Z,96424.92
2023-03-10T16:17:11.608Z,96417.70
2023-03-10T16:22:13.383Z,96419.01
2023-03-10T16:27:15.810Z,96421.42
2023-03-10T16:32:19.719Z,96426.98
2023-03-10T16:37:28.455Z,96424.34
2023-03-10T16:42:35.649Z,96427.42
2023-03-10T16:47:37.802Z,96430.52
2023-03-10T16:52:42.290Z,96434.95
2023-03-10T16:57:45.898Z,96429.46
2023-03-10T17:02:47.511Z,96430.99
2023-03-10T17:07:55.416Z,96425.19
2023-03-10T17:12:59.307Z,96423.54
2023-03-10T17:18:01.117Z,96416.42
2023-03-10T17:23:03.107Z,96416.20
2023-03-10T17:28:05.644Z,96414.23
2023-03-10T17:33:08.007Z,96416.12
2023-03-10T17:38:09.888Z,96417.06
2023-03-10T17:43:29.618Z,96412.91
2023-03-10T17:48:35.459Z,96407.10
2023-03-10T17:53:37.131Z,96404.17
2023-03-10T17:58:39.733Z,96408.90
2023-03-10T18:03:42.778Z,96410.72
2023-03-10T18:08:45.451Z,96422.15
2023-03-10T18:13:48.570Z,96423.89
2023-03-10T18:18:50.938Z,96420.23
2023-03-10T18:23:53.258Z,96418.58
2023-03-10T18:28:56.796Z,96412.15
2023-03-10T18:33:59.246Z,96407.70
2023-03-10T18:39:03.721Z,96403.93
2023-03-10T18:44:05.692Z,96403.90
2023-03-10T18:49:07.754Z,96405.52
2023-03-10T18:54:09.774Z,96407.38
2023-03-10T18:59:11.710Z,96401.73
2023-03-10T19:04:13.519Z,96401.88
2023-03-10T19:09:15.451Z,96397.79
2023-03-10T19:14:17.392Z,96397.02
2023-03-10T19:19:19.300Z,96393.45
2023-03-10T19:24:21.175Z,96395.12
2023-03-10T19:29:25.078Z,96392.79
2023-03-10T19:34:26.941Z,96390.23
2023-03-10T19:39:29.950Z,96385.88
2023-03-10T19:44:32.087Z,96386.08
2023-03-10T19:49:34.308Z,96388.86
2023-03-10T19:54:36.118Z,96379.90
2023-03-10T19:59:37.904Z,96378.80
2023-03-10T20:04:40.004Z,96375.86
2023-03-10T20:09:41.764Z,96373.23
2023-03-10T20:14:43.481Z,96372.09
2023-03-10T20:19:46.382Z,96367.09
2023-03-10T20:24:48.262Z,96362.05
2023-03-10T20:29:52.256Z,96357.30
2023-03-10T20:34:53.876Z,96347.97
2023-03-10T20:39:55.708Z,96343.88
2023-03-10T20:44:57.592Z,96344.91
2023-03-10T20:49:59.668Z,96340.83
2023-03-10T20:55:02.950Z,96336.51
2023-03-10T21:00:06.999Z,96330.92
2023-03-10T21:05:09.479Z,96327.38
2023-03-10T21:10:13.533Z,96325.89
2023-03-10T21:15:16.863Z,96327.15
2023-03-10T21:20:22.815Z,96320.90
2023-03-10T21:25:28.291Z,96315.61
2023-03-10T21:30:32.994Z,96309.10
2023-03-10T21:35:38.542Z,96310.62
2023-03-10T21:40:40.728Z,96304.76
2023-03-10T21:45:42.471Z,96297.77
2023-03-10T21:50:44.280Z,96299.41
2023-03-10T21:55:45.955Z,96294.45
2023-03-10T22:00:48.000Z,96292.85
2023-03-10T22:05:50.519Z,96292.72
2023-03-10T22:10:54.012Z,96287.62
2023-03-10T22:16:01.805Z,96285.60
2023-03-10T22:21:03.860Z,96292.63
2023-03-10T22:26:05.883Z,96281.05
2023-03-10T22:31:09.636Z,96275.92
2023-03-10T22:36:20.235Z,96268.04
2023-03-10T22:41:23.667Z,96268.55
2023-03-10T22:46:26.255Z,96271.43
2023-03-10T22:51:29.324Z,96269.76
2023-03-10T22:56:41.935Z,96268.04
2023-03-10T23:01:44.236Z,96266.59
2023-03-10T23:06:46.020Z,96260.98
2023-03-10T23:11:49.030Z,96257.96
2023-03-10T23:16:50.817Z,96257.56
2023-03-10T23:21:52.484Z,96255.27
2023-03-10T23:26:54.152Z,96244.25
2023-03-10T23:31:56.001Z,96257.75
2023-03-10T23:36:58.285Z,96257.46
2023-03-10T23:42:00.111Z,96256.59
2023-03-10T23:47:02.003Z,96255.46
2023-03-10T23:52:03.923Z,96249.91
2023-03-10T23:57:05.604Z,96248.20
